Terminal Aerodrome Forecast
Issued by NWS Denver/Boulder, CO

Home | Current Version | Previous Version | Text Only | Print | Product List | Glossary On
Versions: 1 2 3 4 5 6 7 8 9 10 11 12 13 14 15 16 17 18 19 20 21 22 23 24 25 26 27 28 29 30 31 32 33 34 35 36 37 38 39 40 41 42 43 44 45 46 47 48 49 50
000
FTUS45 KBOU 282124 AAB
TAFDEN
TAF AMD
KDEN 282124Z 2821/2924 15015G25KT P6SM SCT070 BKN120
     FM282300 15012KT P6SM SCT070 BKN120
     FM290200 03011KT P6SM SCT100 SCT200
     FM290600 34010KT P6SM SCT200
     FM291400 30010KT P6SM FEW100 SCT150
     FM292000 03012KT P6SM SCT080 BKN140 PROB30 2920/2924 VRB20G30KT
      -TSRA SCT080CB=

USA.gov is the U.S. government's official web portal to all federal, state and local government web resources and services.